Česky Dansk Deutsch English Español Suomi Français Magyar Italiano Nederlands norsk Polski Português svenska Türkçe

 

Het Weer

Witbank (Zuid Afrika)

06:00, 27 November 2007 (GMT)

NWNNE
WE
SWSSE
Home            
Witbank Springs Carolina Waterkloof (SAAF) Pretoria Irene Wonderboom / Pretoria Johannesburg International Airport Pretoria Ermelo Standerton Lanseria Rand Vereeniging Frankfort Nelspruit Rustenburg Pietersburg Civil Pietersburg Manzini / Matsapa Airport Potchefstroom Newcastle Hoedspruit Tzaneen

Om een weerknop op uw website of weblog te plaatsen, copieer onderstaande code en plak die in uw pagina. In het eerste vakje staat HTML-code, in het tweede vakje UBB-code.


Add to Google

Details

Het Weer:moderate
moderate
moderate
Temperature:19°C, 66°F
Dew-point:13°C, 55°F
Atmospheric pressure:1020 hPa, 765.1 mmHg, 30.12 inHg, 1.007 atm
Relative humidity:68.2 %
METAR:FAWI 270600Z AUTO 00000KT 19/13 Q1020

Snelkoppelingen

Actuele weersinformatie van de hele wereld. Voeg locaties toe met het plus (+) symbool. Deze snelkoppelingen kunnen worden toegevoegd aan Google.

Lid van de Technetium groep

website free tracking
StatCounter NetStat W3C Validator

16-08-2018 07:46:36
astro.technetium.be money.technetium.be phote.technetium.be tafeltennistafel.technetium.be www.ligfiets.net